sensor_id;sensor_type;location;lat;lon;timestamp;pressure;altitude;pressure_sealevel;temperature
74493;BMP180;62978;51.094;-115.362;2022-10-14T00:01:22;87242.40;;;18.58
74493;BMP180;62978;51.094;-115.362;2022-10-14T00:03:50;87237.40;;;18.24
74493;BMP180;62978;51.094;-115.362;2022-10-14T00:06:23;87241.80;;;17.92
74493;BMP180;62978;51.094;-115.362;2022-10-14T00:08:51;87239.40;;;17.62
74493;BMP180;62978;51.094;-115.362;2022-10-14T00:11:25;87242.40;;;17.38
74493;BMP180;62978;51.094;-115.362;2022-10-14T00:14:10;87239.00;;;17.00
74493;BMP180;62978;51.094;-115.362;2022-10-14T00:16:41;87240.40;;;16.66
74493;BMP180;62978;51.094;-115.362;2022-10-14T00:19:10;87237.20;;;16.30
74493;BMP180;62978;51.094;-115.362;2022-10-14T00:21:41;87241.40;;;16.00
74493;BMP180;62978;51.094;-115.362;2022-10-14T00:24:11;87247.20;;;15.74
74493;BMP180;62978;51.094;-115.362;2022-10-14T00:26:39;87245.80;;;15.50
74493;BMP180;62978;51.094;-115.362;2022-10-14T00:29:13;87246.40;;;15.20
74493;BMP180;62978;51.094;-115.362;2022-10-14T00:31:40;87244.60;;;15.00
74493;BMP180;62978;51.094;-115.362;2022-10-14T00:34:08;87242.60;;;14.80
74493;BMP180;62978;51.094;-115.362;2022-10-14T00:36:38;87237.00;;;14.52
74493;BMP180;62978;51.094;-115.362;2022-10-14T00:39:06;87234.60;;;14.30
74493;BMP180;62978;51.094;-115.362;2022-10-14T00:41:35;87240.80;;;14.00
74493;BMP180;62978;51.094;-115.362;2022-10-14T00:44:07;87240.80;;;13.80
74493;BMP180;62978;51.094;-115.362;2022-10-14T00:46:53;87238.60;;;13.50
74493;BMP180;62978;51.094;-115.362;2022-10-14T00:49:35;87237.60;;;13.38
74493;BMP180;62978;51.094;-115.362;2022-10-14T00:52:21;87236.60;;;13.10
74493;BMP180;62978;51.094;-115.362;2022-10-14T00:54:54;87239.80;;;12.90
74493;BMP180;62978;51.094;-115.362;2022-10-14T00:57:24;87236.40;;;12.72
74493;BMP180;62978;51.094;-115.362;2022-10-14T01:00:04;87240.60;;;12.50
74493;BMP180;62978;51.094;-115.362;2022-10-14T01:02:32;87237.80;;;12.30
74493;BMP180;62978;51.094;-115.362;2022-10-14T01:05:00;87228.80;;;12.10
74493;BMP180;62978;51.094;-115.362;2022-10-14T01:08:29;87226.00;;;11.96
74493;BMP180;62978;51.094;-115.362;2022-10-14T01:17:08;87228.00;;;11.48
74493;BMP180;62978;51.094;-115.362;2022-10-14T01:23:35;87232.00;;;11.10
74493;BMP180;62978;51.094;-115.362;2022-10-14T01:26:42;87229.80;;;10.90
74493;BMP180;62978;51.094;-115.362;2022-10-14T01:32:08;87227.00;;;10.60
74493;BMP180;62978;51.094;-115.362;2022-10-14T01:34:49;87228.60;;;10.46
74493;BMP180;62978;51.094;-115.362;2022-10-14T01:37:25;87226.20;;;10.30
74493;BMP180;62978;51.094;-115.362;2022-10-14T01:40:03;87229.40;;;10.20
74493;BMP180;62978;51.094;-115.362;2022-10-14T01:42:37;87227.40;;;10.02
74493;BMP180;62978;51.094;-115.362;2022-10-14T01:45:19;87232.20;;;9.90
74493;BMP180;62978;51.094;-115.362;2022-10-14T01:47:50;87239.60;;;9.80
74493;BMP180;62978;51.094;-115.362;2022-10-14T01:50:23;87234.20;;;9.60
74493;BMP180;62978;51.094;-115.362;2022-10-14T01:53:19;87235.40;;;9.50
74493;BMP180;62978;51.094;-115.362;2022-10-14T01:55:48;87229.20;;;9.40
74493;BMP180;62978;51.094;-115.362;2022-10-14T01:58:23;87228.80;;;9.20
74493;BMP180;62978;51.094;-115.362;2022-10-14T02:00:52;87226.00;;;9.10
74493;BMP180;62978;51.094;-115.362;2022-10-14T02:03:20;87221.80;;;9.00
74493;BMP180;62978;51.094;-115.362;2022-10-14T02:06:03;87222.60;;;8.90
74493;BMP180;62978;51.094;-115.362;2022-10-14T02:09:18;87223.40;;;8.80
74493;BMP180;62978;51.094;-115.362;2022-10-14T02:23:38;87214.20;;;8.14
74493;BMP180;62978;51.094;-115.362;2022-10-14T02:26:08;87220.20;;;8.08
74493;BMP180;62978;51.094;-115.362;2022-10-14T02:28:39;87229.60;;;8.00
74493;BMP180;62978;51.094;-115.362;2022-10-14T02:31:13;87229.20;;;7.90
74493;BMP180;62978;51.094;-115.362;2022-10-14T02:33:47;87220.20;;;7.80
74493;BMP180;62978;51.094;-115.362;2022-10-14T02:36:21;87220.40;;;7.70
74493;BMP180;62978;51.094;-115.362;2022-10-14T02:38:52;87225.40;;;7.60
74493;BMP180;62978;51.094;-115.362;2022-10-14T02:41:26;87228.20;;;7.50
74493;BMP180;62978;51.094;-115.362;2022-10-14T02:44:00;87232.40;;;7.40
74493;BMP180;62978;51.094;-115.362;2022-10-14T02:46:28;87235.80;;;7.30
74493;BMP180;62978;51.094;-115.362;2022-10-14T02:48:57;87235.40;;;7.22
74493;BMP180;62978;51.094;-115.362;2022-10-14T02:51:26;87241.40;;;7.18
74493;BMP180;62978;51.094;-115.362;2022-10-14T02:53:55;87243.20;;;7.10
74493;BMP180;62978;51.094;-115.362;2022-10-14T02:56:23;87239.40;;;7.00
74493;BMP180;62978;51.094;-115.362;2022-10-14T02:58:51;87241.00;;;6.92
74493;BMP180;62978;51.094;-115.362;2022-10-14T03:01:22;87240.40;;;6.90
74493;BMP180;62978;51.094;-115.362;2022-10-14T03:03:49;87242.00;;;6.80
74493;BMP180;62978;51.094;-115.362;2022-10-14T03:06:18;87244.20;;;6.70
74493;BMP180;62978;51.094;-115.362;2022-10-14T03:08:45;87239.80;;;6.70
74493;BMP180;62978;51.094;-115.362;2022-10-14T03:11:15;87240.40;;;6.60
74493;BMP180;62978;51.094;-115.362;2022-10-14T03:13:44;87245.60;;;6.50
74493;BMP180;62978;51.094;-115.362;2022-10-14T03:16:12;87255.60;;;6.50
74493;BMP180;62978;51.094;-115.362;2022-10-14T03:18:39;87248.80;;;6.40
74493;BMP180;62978;51.094;-115.362;2022-10-14T03:21:11;87249.60;;;6.30
74493;BMP180;62978;51.094;-115.362;2022-10-14T03:23:38;87253.20;;;6.30
74493;BMP180;62978;51.094;-115.362;2022-10-14T03:26:06;87262.20;;;6.20
74493;BMP180;62978;51.094;-115.362;2022-10-14T03:28:34;87266.20;;;6.12
74493;BMP180;62978;51.094;-115.362;2022-10-14T03:31:03;87260.40;;;6.10
74493;BMP180;62978;51.094;-115.362;2022-10-14T03:33:30;87250.60;;;6.00
74493;BMP180;62978;51.094;-115.362;2022-10-14T03:35:58;87249.60;;;6.00
74493;BMP180;62978;51.094;-115.362;2022-10-14T03:38:26;87253.00;;;5.90
74493;BMP180;62978;51.094;-115.362;2022-10-14T03:40:53;87243.60;;;5.90
74493;BMP180;62978;51.094;-115.362;2022-10-14T03:43:21;87239.00;;;5.80
74493;BMP180;62978;51.094;-115.362;2022-10-14T03:45:51;87238.20;;;5.76
74493;BMP180;62978;51.094;-115.362;2022-10-14T03:48:18;87243.00;;;5.70
74493;BMP180;62978;51.094;-115.362;2022-10-14T03:50:49;87240.00;;;5.60
74493;BMP180;62978;51.094;-115.362;2022-10-14T03:53:20;87241.60;;;5.60
74493;BMP180;62978;51.094;-115.362;2022-10-14T03:55:47;87235.00;;;5.50
74493;BMP180;62978;51.094;-115.362;2022-10-14T03:58:15;87236.60;;;5.46
74493;BMP180;62978;51.094;-115.362;2022-10-14T04:00:42;87239.40;;;5.40
74493;BMP180;62978;51.094;-115.362;2022-10-14T04:03:10;87238.60;;;5.30
74493;BMP180;62978;51.094;-115.362;2022-10-14T04:05:38;87238.40;;;5.30
74493;BMP180;62978;51.094;-115.362;2022-10-14T04:08:05;87241.60;;;5.20
74493;BMP180;62978;51.094;-115.362;2022-10-14T04:10:33;87249.60;;;5.20
74493;BMP180;62978;51.094;-115.362;2022-10-14T04:13:01;87254.60;;;5.14
74493;BMP180;62978;51.094;-115.362;2022-10-14T04:15:28;87248.80;;;5.10
74493;BMP180;62978;51.094;-115.362;2022-10-14T04:17:57;87248.00;;;5.10
74493;BMP180;62978;51.094;-115.362;2022-10-14T04:20:28;87247.00;;;5.10
74493;BMP180;62978;51.094;-115.362;2022-10-14T04:22:59;87252.00;;;5.04
74493;BMP180;62978;51.094;-115.362;2022-10-14T04:25:27;87254.40;;;5.00
74493;BMP180;62978;51.094;-115.362;2022-10-14T04:27:54;87255.80;;;5.00
74493;BMP180;62978;51.094;-115.362;2022-10-14T04:30:22;87262.00;;;4.90
74493;BMP180;62978;51.094;-115.362;2022-10-14T04:32:49;87256.00;;;4.88
74493;BMP180;62978;51.094;-115.362;2022-10-14T04:35:17;87254.00;;;4.80
74493;BMP180;62978;51.094;-115.362;2022-10-14T04:37:45;87248.20;;;4.70
74493;BMP180;62978;51.094;-115.362;2022-10-14T04:40:13;87257.40;;;4.70
74493;BMP180;62978;51.094;-115.362;2022-10-14T04:42:40;87250.00;;;4.60
74493;BMP180;62978;51.094;-115.362;2022-10-14T04:45:08;87255.80;;;4.60
74493;BMP180;62978;51.094;-115.362;2022-10-14T04:47:35;87260.00;;;4.52
74493;BMP180;62978;51.094;-115.362;2022-10-14T04:50:03;87263.00;;;4.50
74493;BMP180;62978;51.094;-115.362;2022-10-14T04:52:30;87262.80;;;4.40
74493;BMP180;62978;51.094;-115.362;2022-10-14T04:54:57;87266.40;;;4.40
74493;BMP180;62978;51.094;-115.362;2022-10-14T04:57:24;87273.40;;;4.30
74493;BMP180;62978;51.094;-115.362;2022-10-14T04:59:52;87271.80;;;4.30
74493;BMP180;62978;51.094;-115.362;2022-10-14T05:02:19;87273.00;;;4.20
74493;BMP180;62978;51.094;-115.362;2022-10-14T05:04:47;87274.60;;;4.20
74493;BMP180;62978;51.094;-115.362;2022-10-14T05:07:14;87270.40;;;4.20
74493;BMP180;62978;51.094;-115.362;2022-10-14T05:09:41;87272.60;;;4.20
74493;BMP180;62978;51.094;-115.362;2022-10-14T05:12:08;87265.80;;;4.20
74493;BMP180;62978;51.094;-115.362;2022-10-14T05:14:36;87263.20;;;4.10
74493;BMP180;62978;51.094;-115.362;2022-10-14T05:17:03;87262.60;;;4.10
74493;BMP180;62978;51.094;-115.362;2022-10-14T05:19:30;87254.60;;;4.10
74493;BMP180;62978;51.094;-115.362;2022-10-14T05:21:57;87246.60;;;4.10
74493;BMP180;62978;51.094;-115.362;2022-10-14T05:24:24;87242.00;;;4.04
74493;BMP180;62978;51.094;-115.362;2022-10-14T05:26:52;87246.20;;;4.00
74493;BMP180;62978;51.094;-115.362;2022-10-14T05:29:19;87243.40;;;3.92
74493;BMP180;62978;51.094;-115.362;2022-10-14T05:31:46;87249.20;;;3.90
74493;BMP180;62978;51.094;-115.362;2022-10-14T05:34:13;87249.00;;;3.90
74493;BMP180;62978;51.094;-115.362;2022-10-14T05:36:41;87247.20;;;3.80
74493;BMP180;62978;51.094;-115.362;2022-10-14T05:39:08;87244.40;;;3.80
74493;BMP180;62978;51.094;-115.362;2022-10-14T05:41:37;87251.20;;;3.78
74493;BMP180;62978;51.094;-115.362;2022-10-14T05:44:05;87257.00;;;3.70
74493;BMP180;62978;51.094;-115.362;2022-10-14T05:46:33;87256.80;;;3.70
74493;BMP180;62978;51.094;-115.362;2022-10-14T05:49:00;87262.60;;;3.64
74493;BMP180;62978;51.094;-115.362;2022-10-14T05:51:32;87269.80;;;3.60
74493;BMP180;62978;51.094;-115.362;2022-10-14T05:53:59;87268.20;;;3.58
74493;BMP180;62978;51.094;-115.362;2022-10-14T05:56:27;87268.80;;;3.50
74493;BMP180;62978;51.094;-115.362;2022-10-14T05:58:54;87269.80;;;3.50
74493;BMP180;62978;51.094;-115.362;2022-10-14T06:01:22;87267.00;;;3.46
74493;BMP180;62978;51.094;-115.362;2022-10-14T06:03:52;87266.00;;;3.40
74493;BMP180;62978;51.094;-115.362;2022-10-14T06:06:20;87261.60;;;3.40
74493;BMP180;62978;51.094;-115.362;2022-10-14T06:08:47;87263.40;;;3.40
74493;BMP180;62978;51.094;-115.362;2022-10-14T06:11:15;87260.60;;;3.30
74493;BMP180;62978;51.094;-115.362;2022-10-14T06:13:42;87262.60;;;3.30
74493;BMP180;62978;51.094;-115.362;2022-10-14T06:16:10;87265.40;;;3.30
74493;BMP180;62978;51.094;-115.362;2022-10-14T06:18:38;87266.80;;;3.30
74493;BMP180;62978;51.094;-115.362;2022-10-14T06:21:05;87260.60;;;3.24
74493;BMP180;62978;51.094;-115.362;2022-10-14T06:23:33;87264.80;;;3.20
74493;BMP180;62978;51.094;-115.362;2022-10-14T06:26:05;87268.60;;;3.20
74493;BMP180;62978;51.094;-115.362;2022-10-14T06:28:33;87264.40;;;3.20
74493;BMP180;62978;51.094;-115.362;2022-10-14T06:31:00;87263.20;;;3.16
74493;BMP180;62978;51.094;-115.362;2022-10-14T06:33:30;87269.60;;;3.10
74493;BMP180;62978;51.094;-115.362;2022-10-14T06:36:00;87269.60;;;3.10
74493;BMP180;62978;51.094;-115.362;2022-10-14T06:38:27;87269.80;;;3.10
74493;BMP180;62978;51.094;-115.362;2022-10-14T06:40:54;87272.80;;;3.10
74493;BMP180;62978;51.094;-115.362;2022-10-14T06:43:22;87274.40;;;3.10
74493;BMP180;62978;51.094;-115.362;2022-10-14T06:45:50;87274.40;;;3.10
74493;BMP180;62978;51.094;-115.362;2022-10-14T06:48:18;87278.40;;;3.20
74493;BMP180;62978;51.094;-115.362;2022-10-14T06:50:45;87272.00;;;3.20
74493;BMP180;62978;51.094;-115.362;2022-10-14T06:53:12;87264.00;;;3.20
74493;BMP180;62978;51.094;-115.362;2022-10-14T06:55:39;87264.60;;;3.20
74493;BMP180;62978;51.094;-115.362;2022-10-14T06:58:07;87260.60;;;3.30
74493;BMP180;62978;51.094;-115.362;2022-10-14T07:00:34;87254.00;;;3.30
74493;BMP180;62978;51.094;-115.362;2022-10-14T07:03:03;87259.00;;;3.30
74493;BMP180;62978;51.094;-115.362;2022-10-14T07:05:30;87255.60;;;3.20
74493;BMP180;62978;51.094;-115.362;2022-10-14T07:07:57;87249.40;;;3.20
74493;BMP180;62978;51.094;-115.362;2022-10-14T07:10:25;87255.40;;;3.24
74493;BMP180;62978;51.094;-115.362;2022-10-14T07:12:55;87242.20;;;3.20
74493;BMP180;62978;51.094;-115.362;2022-10-14T07:15:22;87245.20;;;3.30
74493;BMP180;62978;51.094;-115.362;2022-10-14T07:17:50;87251.60;;;3.28
74493;BMP180;62978;51.094;-115.362;2022-10-14T07:20:17;87244.20;;;3.28
74493;BMP180;62978;51.094;-115.362;2022-10-14T07:22:44;87248.20;;;3.20
74493;BMP180;62978;51.094;-115.362;2022-10-14T07:25:12;87248.80;;;3.20
74493;BMP180;62978;51.094;-115.362;2022-10-14T07:27:39;87259.40;;;3.20
74493;BMP180;62978;51.094;-115.362;2022-10-14T07:30:06;87254.00;;;3.20
74493;BMP180;62978;51.094;-115.362;2022-10-14T07:32:35;87256.40;;;3.20
74493;BMP180;62978;51.094;-115.362;2022-10-14T07:35:03;87253.40;;;3.20
74493;BMP180;62978;51.094;-115.362;2022-10-14T07:37:30;87258.40;;;3.20
74493;BMP180;62978;51.094;-115.362;2022-10-14T07:39:57;87264.60;;;3.20
74493;BMP180;62978;51.094;-115.362;2022-10-14T07:42:25;87265.60;;;3.20
74493;BMP180;62978;51.094;-115.362;2022-10-14T07:44:52;87258.40;;;3.20
74493;BMP180;62978;51.094;-115.362;2022-10-14T07:47:20;87259.20;;;3.20
74493;BMP180;62978;51.094;-115.362;2022-10-14T07:49:47;87253.40;;;3.20
74493;BMP180;62978;51.094;-115.362;2022-10-14T07:52:14;87250.00;;;3.20
74493;BMP180;62978;51.094;-115.362;2022-10-14T07:54:45;87249.20;;;3.20
74493;BMP180;62978;51.094;-115.362;2022-10-14T07:57:12;87244.00;;;3.12
74493;BMP180;62978;51.094;-115.362;2022-10-14T07:59:40;87244.60;;;3.10
74493;BMP180;62978;51.094;-115.362;2022-10-14T08:02:10;87253.60;;;3.10
74493;BMP180;62978;51.094;-115.362;2022-10-14T08:04:38;87257.60;;;3.10
74493;BMP180;62978;51.094;-115.362;2022-10-14T08:07:05;87258.20;;;3.04
74493;BMP180;62978;51.094;-115.362;2022-10-14T08:09:34;87255.80;;;3.00
74493;BMP180;62978;51.094;-115.362;2022-10-14T08:12:02;87255.80;;;3.00
74493;BMP180;62978;51.094;-115.362;2022-10-14T08:14:29;87258.80;;;3.00
74493;BMP180;62978;51.094;-115.362;2022-10-14T08:16:57;87257.60;;;2.94
74493;BMP180;62978;51.094;-115.362;2022-10-14T08:19:24;87256.20;;;2.90
74493;BMP180;62978;51.094;-115.362;2022-10-14T08:21:51;87263.80;;;2.90
74493;BMP180;62978;51.094;-115.362;2022-10-14T08:24:19;87245.40;;;2.84
74493;BMP180;62978;51.094;-115.362;2022-10-14T08:26:55;87244.40;;;2.80
74493;BMP180;62978;51.094;-115.362;2022-10-14T08:29:26;87251.80;;;2.80
74493;BMP180;62978;51.094;-115.362;2022-10-14T08:31:53;87251.60;;;2.80
74493;BMP180;62978;51.094;-115.362;2022-10-14T08:34:21;87239.40;;;2.70
74493;BMP180;62978;51.094;-115.362;2022-10-14T08:36:50;87245.20;;;2.70
74493;BMP180;62978;51.094;-115.362;2022-10-14T08:39:19;87239.80;;;2.70
74493;BMP180;62978;51.094;-115.362;2022-10-14T08:45:10;87237.00;;;2.60
74493;BMP180;62978;51.094;-115.362;2022-10-14T08:47:45;87237.80;;;2.60
74493;BMP180;62978;51.094;-115.362;2022-10-14T08:50:40;87235.60;;;2.50
74493;BMP180;62978;51.094;-115.362;2022-10-14T08:53:21;87233.60;;;2.50
74493;BMP180;62978;51.094;-115.362;2022-10-14T08:55:53;87236.80;;;2.50
74493;BMP180;62978;51.094;-115.362;2022-10-14T09:03:41;87246.80;;;2.40
74493;BMP180;62978;51.094;-115.362;2022-10-14T09:06:28;87246.00;;;2.30
74493;BMP180;62978;51.094;-115.362;2022-10-14T09:09:21;87249.00;;;2.30
74493;BMP180;62978;51.094;-115.362;2022-10-14T09:12:01;87247.20;;;2.30
74493;BMP180;62978;51.094;-115.362;2022-10-14T09:14:41;87243.80;;;2.32
74493;BMP180;62978;51.094;-115.362;2022-10-14T09:17:24;87239.00;;;2.40
74493;BMP180;62978;51.094;-115.362;2022-10-14T09:20:23;87238.80;;;2.50
74493;BMP180;62978;51.094;-115.362;2022-10-14T09:23:23;87235.00;;;2.56
74493;BMP180;62978;51.094;-115.362;2022-10-14T09:26:00;87229.00;;;2.60
74493;BMP180;62978;51.094;-115.362;2022-10-14T09:28:38;87239.00;;;2.60
74493;BMP180;62978;51.094;-115.362;2022-10-14T09:31:10;87240.80;;;2.60
74493;BMP180;62978;51.094;-115.362;2022-10-14T09:33:39;87239.00;;;2.60
74493;BMP180;62978;51.094;-115.362;2022-10-14T09:36:19;87240.00;;;2.60
74493;BMP180;62978;51.094;-115.362;2022-10-14T09:38:52;87237.80;;;2.60
74493;BMP180;62978;51.094;-115.362;2022-10-14T09:41:29;87242.40;;;2.60
74493;BMP180;62978;51.094;-115.362;2022-10-14T09:44:21;87238.60;;;2.58
74493;BMP180;62978;51.094;-115.362;2022-10-14T09:47:01;87236.20;;;2.50
74493;BMP180;62978;51.094;-115.362;2022-10-14T09:49:37;87238.60;;;2.50
74493;BMP180;62978;51.094;-115.362;2022-10-14T09:52:08;87237.60;;;2.50
74493;BMP180;62978;51.094;-115.362;2022-10-14T09:54:57;87237.60;;;2.50
74493;BMP180;62978;51.094;-115.362;2022-10-14T09:57:26;87237.20;;;2.60
74493;BMP180;62978;51.094;-115.362;2022-10-14T10:00:01;87236.20;;;2.70
74493;BMP180;62978;51.094;-115.362;2022-10-14T10:02:40;87241.40;;;2.74
74493;BMP180;62978;51.094;-115.362;2022-10-14T10:05:31;87239.40;;;2.80
74493;BMP180;62978;51.094;-115.362;2022-10-14T10:08:14;87235.40;;;2.90
74493;BMP180;62978;51.094;-115.362;2022-10-14T10:13:44;87246.20;;;3.10
74493;BMP180;62978;51.094;-115.362;2022-10-14T10:16:27;87254.40;;;3.30
74493;BMP180;62978;51.094;-115.362;2022-10-14T10:21:49;87257.80;;;3.50
74493;BMP180;62978;51.094;-115.362;2022-10-14T10:24:22;87241.00;;;3.60
74493;BMP180;62978;51.094;-115.362;2022-10-14T10:26:50;87244.60;;;3.80
74493;BMP180;62978;51.094;-115.362;2022-10-14T10:29:26;87240.40;;;3.90
74493;BMP180;62978;51.094;-115.362;2022-10-14T10:32:32;87237.00;;;4.10
74493;BMP180;62978;51.094;-115.362;2022-10-14T10:47:53;87222.00;;;4.60
74493;BMP180;62978;51.094;-115.362;2022-10-14T10:50:44;87207.20;;;4.60
74493;BMP180;62978;51.094;-115.362;2022-10-14T10:54:05;87190.60;;;4.60
74493;BMP180;62978;51.094;-115.362;2022-10-14T10:56:52;87203.00;;;4.70
74493;BMP180;62978;51.094;-115.362;2022-10-14T10:59:58;87224.20;;;4.80
74493;BMP180;62978;51.094;-115.362;2022-10-14T11:02:53;87214.60;;;4.90
74493;BMP180;62978;51.094;-115.362;2022-10-14T11:05:49;87210.40;;;4.96
74493;BMP180;62978;51.094;-115.362;2022-10-14T11:09:04;87197.00;;;5.00
74493;BMP180;62978;51.094;-115.362;2022-10-14T11:17:22;87171.80;;;5.18
74493;BMP180;62978;51.094;-115.362;2022-10-14T11:20:19;87177.20;;;5.10
74493;BMP180;62978;51.094;-115.362;2022-10-14T11:25:53;87183.20;;;5.10
74493;BMP180;62978;51.094;-115.362;2022-10-14T11:40:58;87162.20;;;5.10
74493;BMP180;62978;51.094;-115.362;2022-10-14T11:43:58;87160.20;;;5.10
74493;BMP180;62978;51.094;-115.362;2022-10-14T11:46:38;87159.00;;;5.10
74493;BMP180;62978;51.094;-115.362;2022-10-14T11:49:31;87155.80;;;5.10
74493;BMP180;62978;51.094;-115.362;2022-10-14T11:52:10;87159.60;;;5.14
74493;BMP180;62978;51.094;-115.362;2022-10-14T11:55:09;87149.40;;;5.10
74493;BMP180;62978;51.094;-115.362;2022-10-14T11:57:46;87149.00;;;5.10
74493;BMP180;62978;51.094;-115.362;2022-10-14T12:00:19;87133.00;;;5.10
74493;BMP180;62978;51.094;-115.362;2022-10-14T12:03:11;87133.40;;;5.10
74493;BMP180;62978;51.094;-115.362;2022-10-14T12:08:39;87130.40;;;5.10
74493;BMP180;62978;51.094;-115.362;2022-10-14T12:14:28;87126.80;;;5.20
74493;BMP180;62978;51.094;-115.362;2022-10-14T12:16:59;87123.80;;;5.20
74493;BMP180;62978;51.094;-115.362;2022-10-14T12:19:30;87113.40;;;5.20
74493;BMP180;62978;51.094;-115.362;2022-10-14T12:25:02;87108.20;;;5.20
74493;BMP180;62978;51.094;-115.362;2022-10-14T12:27:32;87101.20;;;5.20
74493;BMP180;62978;51.094;-115.362;2022-10-14T12:29:59;87105.00;;;5.20
74493;BMP180;62978;51.094;-115.362;2022-10-14T12:32:30;87120.20;;;5.22
74493;BMP180;62978;51.094;-115.362;2022-10-14T12:35:00;87111.60;;;5.30
74493;BMP180;62978;51.094;-115.362;2022-10-14T12:45:31;87111.40;;;5.20
74493;BMP180;62978;51.094;-115.362;2022-10-14T12:48:24;87130.60;;;5.12
74493;BMP180;62978;51.094;-115.362;2022-10-14T12:51:18;87134.60;;;5.10
74493;BMP180;62978;51.094;-115.362;2022-10-14T12:54:01;87131.80;;;5.10
74493;BMP180;62978;51.094;-115.362;2022-10-14T12:56:52;87132.60;;;5.08
74493;BMP180;62978;51.094;-115.362;2022-10-14T12:59:34;87126.20;;;5.00
74493;BMP180;62978;51.094;-115.362;2022-10-14T13:05:05;87115.40;;;4.90
74493;BMP180;62978;51.094;-115.362;2022-10-14T13:07:45;87115.20;;;4.90
74493;BMP180;62978;51.094;-115.362;2022-10-14T13:19:01;87127.60;;;4.90
74493;BMP180;62978;51.094;-115.362;2022-10-14T13:27:01;87138.80;;;4.90
74493;BMP180;62978;51.094;-115.362;2022-10-14T13:33:47;87134.20;;;4.90
74493;BMP180;62978;51.094;-115.362;2022-10-14T13:37:18;87141.80;;;4.84
74493;BMP180;62978;51.094;-115.362;2022-10-14T13:39:37;87139.80;;;4.80
74493;BMP180;62978;51.094;-115.362;2022-10-14T13:42:04;87135.60;;;4.80
74493;BMP180;62978;51.094;-115.362;2022-10-14T13:44:32;87129.60;;;4.80
74493;BMP180;62978;51.094;-115.362;2022-10-14T13:47:00;87132.60;;;4.80
74493;BMP180;62978;51.094;-115.362;2022-10-14T13:49:36;87123.80;;;4.74
74493;BMP180;62978;51.094;-115.362;2022-10-14T13:52:15;87124.40;;;4.70
74493;BMP180;62978;51.094;-115.362;2022-10-14T13:54:44;87131.20;;;4.70
74493;BMP180;62978;51.094;-115.362;2022-10-14T13:57:16;87128.40;;;4.60
74493;BMP180;62978;51.094;-115.362;2022-10-14T13:59:47;87134.80;;;4.60
74493;BMP180;62978;51.094;-115.362;2022-10-14T14:02:24;87138.40;;;4.60
74493;BMP180;62978;51.094;-115.362;2022-10-14T14:04:56;87140.80;;;4.52
74493;BMP180;62978;51.094;-115.362;2022-10-14T14:07:33;87134.60;;;4.50
74493;BMP180;62978;51.094;-115.362;2022-10-14T14:10:06;87133.20;;;4.40
74493;BMP180;62978;51.094;-115.362;2022-10-14T14:12:35;87135.00;;;4.40
74493;BMP180;62978;51.094;-115.362;2022-10-14T14:15:04;87136.80;;;4.30
74493;BMP180;62978;51.094;-115.362;2022-10-14T14:17:31;87143.40;;;4.30
74493;BMP180;62978;51.094;-115.362;2022-10-14T14:20:00;87142.80;;;4.20
74493;BMP180;62978;51.094;-115.362;2022-10-14T14:22:30;87141.60;;;4.20
74493;BMP180;62978;51.094;-115.362;2022-10-14T14:25:23;87141.20;;;4.10
74493;BMP180;62978;51.094;-115.362;2022-10-14T14:27:59;87146.40;;;4.10
74493;BMP180;62978;51.094;-115.362;2022-10-14T14:30:34;87140.00;;;4.04
74493;BMP180;62978;51.094;-115.362;2022-10-14T14:33:10;87141.20;;;4.00
74493;BMP180;62978;51.094;-115.362;2022-10-14T14:35:49;87145.40;;;4.00
74493;BMP180;62978;51.094;-115.362;2022-10-14T14:38:55;87139.40;;;4.00
74493;BMP180;62978;51.094;-115.362;2022-10-14T14:41:27;87135.60;;;4.00
74493;BMP180;62978;51.094;-115.362;2022-10-14T14:44:05;87141.20;;;4.02
74493;BMP180;62978;51.094;-115.362;2022-10-14T14:46:38;87142.20;;;4.10
74493;BMP180;62978;51.094;-115.362;2022-10-14T14:49:12;87147.40;;;4.20
74493;BMP180;62978;51.094;-115.362;2022-10-14T14:51:42;87138.40;;;4.30
74493;BMP180;62978;51.094;-115.362;2022-10-14T14:54:19;87122.40;;;4.38
74493;BMP180;62978;51.094;-115.362;2022-10-14T14:56:49;87127.00;;;4.42
74493;BMP180;62978;51.094;-115.362;2022-10-14T14:59:42;87127.20;;;4.50
74493;BMP180;62978;51.094;-115.362;2022-10-14T15:02:20;87124.80;;;4.60
74493;BMP180;62978;51.094;-115.362;2022-10-14T15:05:07;87130.80;;;4.70
74493;BMP180;62978;51.094;-115.362;2022-10-14T15:07:36;87136.80;;;4.70
74493;BMP180;62978;51.094;-115.362;2022-10-14T15:10:18;87134.40;;;4.70
74493;BMP180;62978;51.094;-115.362;2022-10-14T15:12:54;87129.60;;;4.80
74493;BMP180;62978;51.094;-115.362;2022-10-14T15:15:32;87123.60;;;4.80
74493;BMP180;62978;51.094;-115.362;2022-10-14T15:18:25;87130.00;;;4.86
74493;BMP180;62978;51.094;-115.362;2022-10-14T15:21:15;87117.80;;;4.90
74493;BMP180;62978;51.094;-115.362;2022-10-14T15:23:58;87115.80;;;4.90
74493;BMP180;62978;51.094;-115.362;2022-10-14T15:26:36;87119.40;;;5.00
74493;BMP180;62978;51.094;-115.362;2022-10-14T15:29:20;87115.80;;;5.00
74493;BMP180;62978;51.094;-115.362;2022-10-14T15:32:13;87106.40;;;5.10
74493;BMP180;62978;51.094;-115.362;2022-10-14T15:34:41;87102.00;;;5.20
74493;BMP180;62978;51.094;-115.362;2022-10-14T15:37:12;87097.20;;;5.30
74493;BMP180;62978;51.094;-115.362;2022-10-14T15:39:40;87094.00;;;5.40
74493;BMP180;62978;51.094;-115.362;2022-10-14T15:42:11;87091.20;;;5.48
74493;BMP180;62978;51.094;-115.362;2022-10-14T15:44:39;87091.40;;;5.60
74493;BMP180;62978;51.094;-115.362;2022-10-14T15:47:11;87098.00;;;5.68
74493;BMP180;62978;51.094;-115.362;2022-10-14T15:49:45;87090.60;;;5.80
74493;BMP180;62978;51.094;-115.362;2022-10-14T15:52:16;87085.40;;;5.90
74493;BMP180;62978;51.094;-115.362;2022-10-14T15:54:44;87085.40;;;6.06
74493;BMP180;62978;51.094;-115.362;2022-10-14T15:57:12;87086.40;;;6.20
74493;BMP180;62978;51.094;-115.362;2022-10-14T15:59:39;87081.80;;;6.36
74493;BMP180;62978;51.094;-115.362;2022-10-14T16:02:29;87081.20;;;6.50
74493;BMP180;62978;51.094;-115.362;2022-10-14T16:05:01;87081.00;;;6.70
74493;BMP180;62978;51.094;-115.362;2022-10-14T16:07:29;87085.20;;;6.80
74493;BMP180;62978;51.094;-115.362;2022-10-14T16:09:56;87090.80;;;6.96
74493;BMP180;62978;51.094;-115.362;2022-10-14T16:12:23;87090.60;;;7.10